Time;durP1;ratioP1;P1;durP2;ratioP2;P2;SDS_P1;SDS_P2;PMS_P1;PMS_P2;Temp;Humidity;BMP_temperature;BMP_pressure;BME280_temperature;BME280_humidity;BME280_pressure;Samples;Min_cycle;Max_cycle;Signal;HPM_P1;HPM_P2
2023/08/05 00:00:09;;;;;;;;;;;17.60;70.50;;;;;;4992931;28;19914;-68
2023/08/05 00:02:35;;;;;;;;;;;17.60;70.50;;;;;;4992972;28;20310;-68
2023/08/05 00:05:00;;;;;;;;;;;17.60;70.60;;;;;;4992856;28;20004;-68
2023/08/05 00:07:26;;;;;;;;;;;17.60;70.60;;;;;;4992791;28;19910;-69
2023/08/05 00:09:51;;;;;;;;;;;17.60;70.60;;;;;;4993264;28;20410;-69
2023/08/05 00:12:17;;;;;;;;;;;17.60;70.40;;;;;;4992678;28;19936;-68
2023/08/05 00:14:42;;;;;;;;;;;17.50;70.40;;;;;;4992602;28;19918;-68
2023/08/05 00:17:07;;;;;;;;;;;17.60;70.30;;;;;;4992737;28;19914;-68
2023/08/05 00:19:33;;;;;;;;;;;17.50;70.40;;;;;;4992975;28;19918;-68
2023/08/05 00:21:58;;;;;;;;;;;17.50;70.40;;;;;;4992493;28;19914;-68
2023/08/05 00:24:24;;;;;;;;;;;17.50;70.40;;;;;;4992873;28;19920;-69
2023/08/05 00:26:49;;;;;;;;;;;17.50;70.40;;;;;;4992511;28;20012;-68
2023/08/05 00:29:15;;;;;;;;;;;17.40;70.30;;;;;;4992640;28;19976;-69
2023/08/05 00:31:40;;;;;;;;;;;17.40;70.10;;;;;;4992612;28;20291;-68
2023/08/05 00:34:05;;;;;;;;;;;17.40;69.80;;;;;;4992715;28;19962;-68
2023/08/05 00:36:31;;;;;;;;;;;17.30;69.70;;;;;;4992352;28;19917;-69
2023/08/05 00:38:56;;;;;;;;;;;17.30;69.60;;;;;;4992706;28;19909;-69
2023/08/05 00:41:22;;;;;;;;;;;17.30;69.60;;;;;;4992319;28;20141;-69
2023/08/05 00:43:47;;;;;;;;;;;17.20;69.60;;;;;;4992433;28;19910;-69
2023/08/05 00:46:13;;;;;;;;;;;17.10;69.50;;;;;;4992361;28;20021;-69
2023/08/05 00:48:39;;;;;;;;;;;17.10;69.40;;;;;;4991939;28;19922;-68
2023/08/05 00:51:05;;;;;;;;;;;17.10;69.50;;;;;;4992203;28;19957;-69
2023/08/05 00:53:31;;;;;;;;;;;17.00;69.50;;;;;;4974769;28;19921;-68
2023/08/05 00:55:56;;;;;;;;;;;17.00;69.40;;;;;;4974728;28;19997;-69
2023/08/05 00:58:23;;;;;;;;;;;16.90;69.60;;;;;;4992463;28;20025;-69
2023/08/05 01:00:49;;;;;;;;;;;16.90;69.70;;;;;;4992640;28;19956;-69
2023/08/05 01:03:15;;;;;;;;;;;16.90;70.20;;;;;;4974913;28;19967;-69
2023/08/05 01:05:41;;;;;;;;;;;16.90;70.70;;;;;;4992159;28;20450;-69
2023/08/05 01:08:07;;;;;;;;;;;17.00;71.00;;;;;;4994940;28;19918;-69
2023/08/05 01:10:33;;;;;;;;;;;17.10;71.10;;;;;;4996040;28;19976;-69
2023/08/05 01:12:58;;;;;;;;;;;17.10;71.40;;;;;;4996089;28;20018;-68
2023/08/05 01:15:24;;;;;;;;;;;17.30;71.40;;;;;;4995996;28;19914;-69
2023/08/05 01:17:52;;;;;;;;;;;17.30;71.30;;;;;;4996260;28;20297;-68
2023/08/05 01:20:18;;;;;;;;;;;17.30;71.20;;;;;;4996315;28;20405;-68
2023/08/05 01:22:44;;;;;;;;;;;17.30;71.10;;;;;;4995789;28;19914;-68
2023/08/05 01:25:20;;;;;;;;;;;17.30;70.90;;;;;;4995665;28;20407;-68
2023/08/05 01:27:45;;;;;;;;;;;17.30;70.70;;;;;;4995702;28;20008;-69
2023/08/05 01:30:11;;;;;;;;;;;17.30;70.50;;;;;;4995748;28;20004;-69
2023/08/05 01:32:37;;;;;;;;;;;17.30;70.20;;;;;;4995604;28;19953;-68
2023/08/05 01:35:04;;;;;;;;;;;17.20;70.20;;;;;;4995748;28;19914;-69
2023/08/05 01:37:29;;;;;;;;;;;17.20;70.20;;;;;;4995540;28;19920;-69
2023/08/05 01:39:55;;;;;;;;;;;17.10;70.00;;;;;;4996247;28;20335;-69
2023/08/05 01:42:20;;;;;;;;;;;17.10;69.90;;;;;;4995441;28;19987;-69
2023/08/05 01:44:45;;;;;;;;;;;17.10;69.60;;;;;;4995806;28;19937;-68
2023/08/05 01:47:11;;;;;;;;;;;17.00;69.50;;;;;;4995375;28;19941;-68
2023/08/05 01:49:36;;;;;;;;;;;16.90;69.50;;;;;;4995104;28;20008;-68
2023/08/05 01:52:02;;;;;;;;;;;16.90;69.70;;;;;;4995424;28;19937;-68
2023/08/05 01:54:27;;;;;;;;;;;16.90;70.20;;;;;;4995885;28;19922;-68
2023/08/05 01:56:53;;;;;;;;;;;17.00;70.80;;;;;;4995237;28;19918;-68
2023/08/05 01:59:18;;;;;;;;;;;17.00;71.30;;;;;;4995138;28;19914;-68
2023/08/05 02:01:45;;;;;;;;;;;17.20;71.60;;;;;;4977969;28;19921;-68
2023/08/05 02:04:11;;;;;;;;;;;17.30;71.80;;;;;;4995424;28;19914;-69
2023/08/05 02:06:36;;;;;;;;;;;17.30;71.80;;;;;;4995077;28;20297;-68
2023/08/05 02:09:01;;;;;;;;;;;17.40;71.90;;;;;;4995585;28;19968;-68
2023/08/05 02:11:27;;;;;;;;;;;17.50;71.90;;;;;;4994970;28;19921;-68
2023/08/05 02:13:52;;;;;;;;;;;17.60;71.90;;;;;;4995241;28;19921;-68
2023/08/05 02:16:18;;;;;;;;;;;17.70;71.90;;;;;;4994845;28;19913;-68
2023/08/05 02:18:43;;;;;;;;;;;17.70;71.80;;;;;;4994749;28;20004;-68
2023/08/05 02:21:09;;;;;;;;;;;17.80;71.80;;;;;;4994850;28;19914;-68
2023/08/05 02:23:34;;;;;;;;;;;17.80;71.70;;;;;;4995126;28;19993;-68
2023/08/05 02:26:02;;;;;;;;;;;17.90;71.80;;;;;;4994640;28;19952;-68
2023/08/05 02:28:27;;;;;;;;;;;18.00;71.70;;;;;;4994821;28;19922;-68
2023/08/05 02:30:53;;;;;;;;;;;18.00;71.70;;;;;;4994633;28;19918;-68
2023/08/05 02:33:18;;;;;;;;;;;18.10;71.70;;;;;;4994696;28;19915;-69
2023/08/05 02:35:43;;;;;;;;;;;18.10;71.60;;;;;;4994705;28;20365;-69
2023/08/05 02:38:09;;;;;;;;;;;18.20;71.60;;;;;;4994431;28;20273;-69
2023/08/05 02:40:34;;;;;;;;;;;18.20;71.60;;;;;;4994827;28;20384;-68
2023/08/05 02:43:00;;;;;;;;;;;18.20;71.60;;;;;;4994598;28;19964;-69
2023/08/05 02:45:25;;;;;;;;;;;18.30;71.60;;;;;;4994388;28;19913;-69
2023/08/05 02:47:51;;;;;;;;;;;18.30;71.60;;;;;;4994170;28;19976;-68
2023/08/05 02:50:16;;;;;;;;;;;18.30;71.60;;;;;;4994403;28;20016;-69
2023/08/05 02:52:41;;;;;;;;;;;18.30;71.50;;;;;;4976703;28;20388;-68
2023/08/05 02:55:07;;;;;;;;;;;18.30;71.60;;;;;;4994547;28;19917;-69
2023/08/05 02:57:33;;;;;;;;;;;18.30;71.60;;;;;;4993972;28;19914;-69
2023/08/05 02:59:58;;;;;;;;;;;18.40;71.60;;;;;;4994239;28;19941;-69
2023/08/05 03:02:23;;;;;;;;;;;18.40;71.60;;;;;;4993929;28;19916;-68
2023/08/05 03:04:49;;;;;;;;;;;18.40;71.60;;;;;;4994480;28;19917;-69
2023/08/05 03:07:14;;;;;;;;;;;18.40;71.50;;;;;;4993882;28;20373;-69
2023/08/05 03:09:40;;;;;;;;;;;18.50;71.50;;;;;;4994532;28;19914;-69
2023/08/05 03:12:07;;;;;;;;;;;18.50;71.60;;;;;;4993923;28;20012;-69
2023/08/05 03:14:33;;;;;;;;;;;18.50;71.50;;;;;;4994209;28;20428;-67
2023/08/05 03:16:58;;;;;;;;;;;18.50;71.60;;;;;;4993813;28;20407;-68
2023/08/05 03:19:24;;;;;;;;;;;18.50;71.50;;;;;;4993611;28;20000;-68
2023/08/05 03:21:50;;;;;;;;;;;18.50;71.50;;;;;;4993688;28;19917;-68
2023/08/05 03:24:15;;;;;;;;;;;18.60;71.50;;;;;;4993758;28;20371;-67
2023/08/05 03:26:41;;;;;;;;;;;18.60;71.50;;;;;;4993741;28;19972;-68
2023/08/05 03:29:06;;;;;;;;;;;18.60;71.60;;;;;;4993922;28;19914;-69
2023/08/05 03:31:31;;;;;;;;;;;18.60;71.60;;;;;;4992457;28;19921;-69
2023/08/05 03:33:58;;;;;;;;;;;18.60;71.60;;;;;;4993788;28;19910;-69
2023/08/05 03:36:24;;;;;;;;;;;18.60;71.50;;;;;;4993342;28;20016;-69
2023/08/05 03:38:49;;;;;;;;;;;18.70;71.40;;;;;;4993523;28;19968;-68
2023/08/05 03:41:14;;;;;;;;;;;18.60;71.40;;;;;;4993380;28;20004;-69
2023/08/05 03:43:40;;;;;;;;;;;18.60;71.40;;;;;;4993632;28;19910;-68
2023/08/05 03:46:05;;;;;;;;;;;18.60;71.50;;;;;;4993307;28;20590;-69
2023/08/05 03:48:31;;;;;;;;;;;18.60;71.50;;;;;;4992815;28;19918;-69
2023/08/05 03:50:56;;;;;;;;;;;18.60;71.50;;;;;;4993246;28;20292;-69
2023/08/05 03:53:22;;;;;;;;;;;18.60;71.50;;;;;;4993143;28;20064;-70
2023/08/05 03:55:47;;;;;;;;;;;18.60;71.60;;;;;;4993355;28;20456;-69
2023/08/05 03:58:13;;;;;;;;;;;18.70;71.60;;;;;;4993271;28;20369;-69
2023/08/05 04:00:42;;;;;;;;;;;18.70;71.70;;;;;;4993011;28;19917;-69
2023/08/05 04:03:07;;;;;;;;;;;18.70;71.70;;;;;;4975627;28;19968;-69
2023/08/05 04:05:33;;;;;;;;;;;18.70;71.60;;;;;;4992850;28;19918;-70
2023/08/05 04:07:58;;;;;;;;;;;18.70;71.60;;;;;;4992751;28;20016;-70
2023/08/05 04:10:24;;;;;;;;;;;18.70;71.60;;;;;;4992852;28;19920;-70
2023/08/05 04:12:50;;;;;;;;;;;18.70;71.60;;;;;;4993008;28;19916;-70
2023/08/05 04:15:17;;;;;;;;;;;18.70;71.60;;;;;;4993022;28;19976;-69
2023/08/05 04:17:44;;;;;;;;;;;18.80;71.80;;;;;;4991289;28;19920;-70
2023/08/05 04:20:11;;;;;;;;;;;18.80;72.00;;;;;;4975328;28;20297;-69
2023/08/05 04:22:38;;;;;;;;;;;18.90;72.00;;;;;;4992484;28;19941;-69
2023/08/05 04:25:04;;;;;;;;;;;19.00;72.00;;;;;;4992581;28;19926;-69
2023/08/05 04:27:29;;;;;;;;;;;19.20;72.20;;;;;;4992384;28;19972;-70
2023/08/05 04:29:55;;;;;;;;;;;19.30;72.10;;;;;;4992972;28;20066;-70
2023/08/05 04:32:21;;;;;;;;;;;19.40;71.70;;;;;;4992673;28;19914;-69
2023/08/05 04:34:46;;;;;;;;;;;19.40;71.60;;;;;;4992929;28;19960;-67
2023/08/05 04:37:16;;;;;;;;;;;19.50;72.20;;;;;;4992509;28;19969;-69
2023/08/05 04:39:42;;;;;;;;;;;19.80;72.50;;;;;;4992987;28;20554;-69
2023/08/05 04:42:08;;;;;;;;;;;19.90;72.30;;;;;;4992229;28;19918;-70
2023/08/05 04:44:33;;;;;;;;;;;20.00;72.00;;;;;;4992784;28;19961;-69
2023/08/05 04:46:59;;;;;;;;;;;20.00;71.60;;;;;;4992322;28;19914;-68
2023/08/05 04:49:24;;;;;;;;;;;20.00;71.60;;;;;;4992306;28;20015;-68
2023/08/05 04:51:49;;;;;;;;;;;20.10;71.70;;;;;;4992241;28;19914;-68
2023/08/05 04:54:15;;;;;;;;;;;20.10;71.80;;;;;;4992533;28;19914;-68
2023/08/05 04:56:40;;;;;;;;;;;20.10;71.90;;;;;;4992195;28;19913;-68
2023/08/05 04:59:06;;;;;;;;;;;20.20;71.90;;;;;;4974861;28;19915;-68
2023/08/05 05:01:32;;;;;;;;;;;20.20;71.90;;;;;;4992190;28;19918;-70
2023/08/05 05:03:58;;;;;;;;;;;20.30;71.70;;;;;;4985038;28;19921;-70
2023/08/05 05:06:24;;;;;;;;;;;20.30;71.70;;;;;;4972730;28;19918;-69
2023/08/05 05:08:49;;;;;;;;;;;20.30;71.70;;;;;;4972907;28;19963;-68
2023/08/05 05:11:14;;;;;;;;;;;20.30;71.80;;;;;;4972607;28;19921;-69
2023/08/05 05:13:43;;;;;;;;;;;20.30;71.80;;;;;;4972815;28;20005;-68
2023/08/05 05:16:09;;;;;;;;;;;20.30;71.90;;;;;;4972807;28;19921;-68
2023/08/05 05:18:34;;;;;;;;;;;20.30;71.80;;;;;;4972841;28;20277;-67
2023/08/05 05:21:00;;;;;;;;;;;20.40;71.80;;;;;;4972814;28;19922;-68
2023/08/05 05:23:26;;;;;;;;;;;20.40;71.90;;;;;;4972585;28;19914;-68
2023/08/05 05:25:51;;;;;;;;;;;20.50;72.00;;;;;;4972407;28;20009;-68
2023/08/05 05:28:17;;;;;;;;;;;20.50;72.00;;;;;;4972550;28;20334;-68
2023/08/05 05:30:42;;;;;;;;;;;20.50;72.00;;;;;;4972448;28;19914;-68
2023/08/05 05:33:08;;;;;;;;;;;20.50;72.10;;;;;;4972488;28;19914;-68
2023/08/05 05:35:33;;;;;;;;;;;20.60;72.30;;;;;;4972660;28;19918;-68
2023/08/05 05:37:58;;;;;;;;;;;20.70;72.40;;;;;;4972435;28;19914;-68
2023/08/05 05:40:24;;;;;;;;;;;20.80;72.40;;;;;;4972425;28;20301;-68
2023/08/05 05:42:49;;;;;;;;;;;20.80;72.30;;;;;;4972420;28;20409;-68
2023/08/05 05:45:15;;;;;;;;;;;20.90;72.10;;;;;;4985699;28;19978;-68
2023/08/05 05:47:41;;;;;;;;;;;20.90;71.90;;;;;;4974138;28;19916;-69
2023/08/05 05:50:06;;;;;;;;;;;21.00;71.70;;;;;;4992000;28;19921;-68
2023/08/05 05:52:32;;;;;;;;;;;21.00;71.80;;;;;;4991644;28;20211;-68
2023/08/05 05:54:57;;;;;;;;;;;21.00;72.10;;;;;;4993987;28;19918;-68
2023/08/05 05:57:23;;;;;;;;;;;21.00;71.90;;;;;;4995309;28;19914;-68
2023/08/05 05:59:48;;;;;;;;;;;21.00;71.80;;;;;;4995762;28;19925;-68
2023/08/05 06:02:14;;;;;;;;;;;21.00;72.00;;;;;;4977663;28;19914;-68
2023/08/05 06:04:42;;;;;;;;;;;21.10;71.90;;;;;;4995721;28;20376;-68
2023/08/05 06:07:07;;;;;;;;;;;21.10;71.80;;;;;;4995383;28;19948;-68
2023/08/05 06:09:33;;;;;;;;;;;21.20;71.80;;;;;;4977589;28;20372;-68
2023/08/05 06:11:59;;;;;;;;;;;21.20;71.80;;;;;;4995101;28;19964;-68
2023/08/05 06:14:24;;;;;;;;;;;21.20;71.50;;;;;;4995341;28;19914;-68
2023/08/05 06:16:50;;;;;;;;;;;21.30;71.50;;;;;;4994898;28;19918;-68
2023/08/05 06:19:15;;;;;;;;;;;21.30;71.60;;;;;;4995198;28;19921;-69
2023/08/05 06:21:40;;;;;;;;;;;21.30;71.90;;;;;;4995007;28;20012;-68
2023/08/05 06:24:06;;;;;;;;;;;21.40;72.20;;;;;;4994670;28;20362;-69
2023/08/05 06:26:31;;;;;;;;;;;21.50;72.50;;;;;;4994706;28;19914;-68
2023/08/05 06:28:57;;;;;;;;;;;21.60;72.40;;;;;;4994973;28;19918;-69
2023/08/05 06:31:22;;;;;;;;;;;21.70;72.20;;;;;;4993392;28;19925;-69
2023/08/05 06:33:48;;;;;;;;;;;21.80;72.50;;;;;;4994737;28;20333;-69
2023/08/05 06:36:13;;;;;;;;;;;21.80;72.60;;;;;;4977293;28;20262;-69
2023/08/05 06:38:39;;;;;;;;;;;21.90;72.40;;;;;;4994701;28;19980;-69
2023/08/05 06:41:04;;;;;;;;;;;22.00;72.40;;;;;;4994544;28;19913;-69
2023/08/05 06:43:30;;;;;;;;;;;22.10;72.20;;;;;;4994574;28;19914;-68
2023/08/05 06:45:55;;;;;;;;;;;22.10;72.50;;;;;;4994294;28;20389;-69
2023/08/05 06:48:23;;;;;;;;;;;22.20;72.10;;;;;;4994128;28;19922;-68
2023/08/05 06:50:48;;;;;;;;;;;22.20;72.10;;;;;;4994440;28;19973;-68
2023/08/05 06:53:13;;;;;;;;;;;22.30;72.10;;;;;;4994017;28;20378;-69
2023/08/05 06:55:39;;;;;;;;;;;22.30;72.30;;;;;;4994187;28;19914;-69
2023/08/05 06:58:04;;;;;;;;;;;22.40;72.70;;;;;;4994370;28;20008;-69
2023/08/05 07:00:30;;;;;;;;;;;22.60;73.00;;;;;;4994234;28;19964;-69
2023/08/05 07:02:57;;;;;;;;;;;22.70;73.20;;;;;;4994089;28;19941;-70
2023/08/05 07:05:23;;;;;;;;;;;22.90;73.10;;;;;;4994271;28;19918;-69
2023/08/05 07:07:49;;;;;;;;;;;23.00;72.60;;;;;;4993969;28;20384;-70
2023/08/05 07:10:15;;;;;;;;;;;23.20;72.80;;;;;;4990271;28;20011;-69
2023/08/05 07:12:40;;;;;;;;;;;23.30;72.80;;;;;;4976964;28;20386;-69
2023/08/05 07:15:06;;;;;;;;;;;23.40;72.60;;;;;;4976957;28;19922;-69
2023/08/05 07:17:31;;;;;;;;;;;23.50;72.50;;;;;;4974262;28;19917;-69
2023/08/05 07:19:57;;;;;;;;;;;23.70;72.50;;;;;;4974575;28;19925;-69
2023/08/05 07:22:23;;;;;;;;;;;23.80;72.60;;;;;;4974427;28;19920;-69
2023/08/05 07:24:48;;;;;;;;;;;24.00;72.70;;;;;;4979217;28;20505;-69
2023/08/05 07:27:14;;;;;;;;;;;24.10;72.30;;;;;;4976099;28;19964;-69
2023/08/05 07:29:42;;;;;;;;;;;24.20;72.50;;;;;;4993921;28;19918;-69
2023/08/05 07:32:08;;;;;;;;;;;24.30;72.40;;;;;;4993612;28;19949;-69
2023/08/05 07:34:33;;;;;;;;;;;24.50;72.30;;;;;;4993873;28;19988;-69
2023/08/05 07:36:59;;;;;;;;;;;24.50;72.40;;;;;;4993621;28;20385;-69
2023/08/05 07:39:28;;;;;;;;;;;24.60;72.50;;;;;;4993804;28;20009;-69
2023/08/05 07:41:53;;;;;;;;;;;24.70;72.30;;;;;;4993234;28;20377;-69
2023/08/05 07:44:19;;;;;;;;;;;24.70;72.30;;;;;;4993628;28;19921;-69
2023/08/05 07:46:47;;;;;;;;;;;24.70;72.30;;;;;;4993268;28;19914;-70
2023/08/05 07:49:12;;;;;;;;;;;24.70;71.80;;;;;;4993026;28;19917;-70
2023/08/05 07:51:39;;;;;;;;;;;24.70;72.20;;;;;;4993363;28;19921;-70
2023/08/05 07:54:05;;;;;;;;;;;24.80;72.60;;;;;;4993460;28;19914;-70
2023/08/05 07:56:32;;;;;;;;;;;25.00;72.90;;;;;;5009442;28;20395;-69
2023/08/05 07:58:57;;;;;;;;;;;25.10;73.00;;;;;;5012890;28;19919;-70
2023/08/05 08:01:23;;;;;;;;;;;25.20;72.90;;;;;;4994736;28;20289;-70
2023/08/05 08:03:51;;;;;;;;;;;25.20;72.70;;;;;;4991399;28;20061;-70
2023/08/05 08:06:17;;;;;;;;;;;25.30;72.90;;;;;;5007881;28;19914;-70
2023/08/05 08:08:43;;;;;;;;;;;25.40;72.80;;;;;;5012645;28;19921;-69
2023/08/05 08:11:10;;;;;;;;;;;25.50;72.80;;;;;;5012161;28;20432;-69
2023/08/05 08:13:35;;;;;;;;;;;25.60;72.90;;;;;;4993231;28;19920;-70
2023/08/05 08:16:01;;;;;;;;;;;25.70;72.60;;;;;;5005481;28;20288;-70
2023/08/05 08:18:26;;;;;;;;;;;25.80;72.80;;;;;;5011963;28;20354;-70
2023/08/05 08:20:52;;;;;;;;;;;26.00;72.80;;;;;;5012061;28;19941;-70
2023/08/05 08:23:17;;;;;;;;;;;26.20;72.50;;;;;;4994907;28;19914;-69
2023/08/05 08:25:43;;;;;;;;;;;26.40;73.20;;;;;;5002851;28;19953;-70
2023/08/05 08:28:08;;;;;;;;;;;26.70;73.00;;;;;;5012402;28;20012;-70
2023/08/05 08:30:34;;;;;;;;;;;27.00;73.10;;;;;;5011826;28;19914;-71
2023/08/05 08:32:59;;;;;;;;;;;27.20;73.20;;;;;;4997308;28;19921;-71
2023/08/05 08:35:24;;;;;;;;;;;27.40;72.90;;;;;;5000389;28;19975;-71
2023/08/05 08:37:50;;;;;;;;;;;27.70;72.90;;;;;;5012005;28;20396;-71
2023/08/05 08:40:15;;;;;;;;;;;28.00;73.10;;;;;;5011683;28;20293;-71
2023/08/05 08:42:42;;;;;;;;;;;28.30;72.70;;;;;;4999834;28;20433;-71
2023/08/05 08:45:09;;;;;;;;;;;28.50;72.80;;;;;;4997837;28;20004;-72
2023/08/05 08:47:37;;;;;;;;;;;28.70;72.80;;;;;;5011741;28;19935;-72
2023/08/05 08:50:02;;;;;;;;;;;29.00;73.40;;;;;;5011528;28;19921;-71
2023/08/05 08:52:28;;;;;;;;;;;29.40;73.10;;;;;;5001116;28;20396;-72
2023/08/05 08:54:54;;;;;;;;;;;29.80;72.90;;;;;;4996294;28;20420;-72
2023/08/05 08:57:21;;;;;;;;;;;30.00;72.60;;;;;;5011882;28;19953;-72
2023/08/05 08:59:47;;;;;;;;;;;30.30;71.90;;;;;;5011977;28;19914;-72
2023/08/05 09:02:13;;;;;;;;;;;30.40;72.00;;;;;;5003287;28;19968;-73
2023/08/05 09:04:44;;;;;;;;;;;30.40;71.20;;;;;;4994170;28;19914;-71
2023/08/05 09:07:09;;;;;;;;;;;30.30;70.50;;;;;;4994055;28;19971;-72
2023/08/05 09:09:35;;;;;;;;;;;30.10;70.60;;;;;;5011716;28;20365;-72
2023/08/05 09:12:02;;;;;;;;;;;30.00;70.70;;;;;;5005413;28;19922;-73
2023/08/05 09:14:27;;;;;;;;;;;30.10;71.70;;;;;;4992261;28;19914;-73
2023/08/05 09:16:59;;;;;;;;;;;30.30;71.70;;;;;;4994061;28;19917;-73
2023/08/05 09:19:25;;;;;;;;;;;30.50;71.60;;;;;;5011803;28;19914;-71
2023/08/05 09:21:51;;;;;;;;;;;30.90;73.20;;;;;;5008421;28;19921;-72
2023/08/05 09:24:24;;;;;;;;;;;31.50;74.80;;;;;;5008164;28;20412;-72
2023/08/05 09:26:56;;;;;;;;;;;32.20;74.30;;;;;;4991468;28;20419;-71
2023/08/05 09:29:22;;;;;;;;;;;32.90;73.70;;;;;;4993601;28;19957;-71
2023/08/05 09:31:57;;;;;;;;;;;33.30;71.70;;;;;;4976660;28;20352;-72
2023/08/05 09:34:30;;;;;;;;;;;33.50;71.10;;;;;;4994296;28;20301;-71
2023/08/05 09:36:56;;;;;;;;;;;33.60;71.40;;;;;;4976557;28;19918;-71
2023/08/05 09:39:23;;;;;;;;;;;33.60;67.60;;;;;;4976689;28;19917;-72
2023/08/05 09:41:51;;;;;;;;;;;33.40;68.30;;;;;;4976260;28;20016;-72
2023/08/05 09:44:16;;;;;;;;;;;33.30;68.40;;;;;;4993712;28;19961;-71
2023/08/05 09:46:43;;;;;;;;;;;33.40;68.00;;;;;;5012644;28;19949;-70
2023/08/05 09:49:10;;;;;;;;;;;33.50;68.80;;;;;;4997159;28;20340;-70
2023/08/05 09:51:36;;;;;;;;;;;33.80;67.80;;;;;;5015117;28;19913;-70
2023/08/05 09:54:02;;;;;;;;;;;33.70;65.80;;;;;;4991475;28;20384;-71
2023/08/05 09:56:30;;;;;;;;;;;33.50;67.10;;;;;;5012140;28;19969;-70
2023/08/05 09:58:56;;;;;;;;;;;33.40;65.20;;;;;;5014627;28;19917;-70
2023/08/05 10:01:21;;;;;;;;;;;33.30;64.30;;;;;;4997103;28;20064;-70
2023/08/05 10:03:48;;;;;;;;;;;33.20;63.70;;;;;;4993943;28;19914;-70
2023/08/05 10:06:13;;;;;;;;;;;33.30;64.80;;;;;;5009833;28;19944;-70
2023/08/05 10:08:40;;;;;;;;;;;33.40;64.40;;;;;;5014607;28;19922;-70
2023/08/05 10:11:06;;;;;;;;;;;33.30;63.30;;;;;;5014701;28;19909;-70
2023/08/05 10:13:36;;;;;;;;;;;33.30;65.60;;;;;;4995215;28;19917;-70
2023/08/05 10:16:03;;;;;;;;;;;33.50;65.30;;;;;;5008113;28;20268;-69
2023/08/05 10:18:28;;;;;;;;;;;33.30;61.80;;;;;;4998320;28;19918;-70
2023/08/05 10:20:54;;;;;;;;;;;33.00;61.20;;;;;;4999278;28;20376;-70
2023/08/05 10:23:23;;;;;;;;;;;32.40;59.80;;;;;;4979221;28;19920;-70
2023/08/05 10:25:49;;;;;;;;;;;31.80;56.60;;;;;;5006239;28;19913;-70
2023/08/05 10:28:24;;;;;;;;;;;31.20;55.90;;;;;;5014355;28;20399;-73
2023/08/05 10:30:50;;;;;;;;;;;30.70;57.80;;;;;;5014153;28;20381;-73
2023/08/05 10:33:16;;;;;;;;;;;30.50;59.10;;;;;;4997406;28;19968;-72
2023/08/05 10:35:42;;;;;;;;;;;30.30;60.50;;;;;;5004689;28;19910;-71
2023/08/05 10:38:12;;;;;;;;;;;30.20;59.00;;;;;;5014180;28;19918;-73
2023/08/05 10:40:45;;;;;;;;;;;30.20;59.30;;;;;;5013619;28;20016;-73
2023/08/05 10:43:24;;;;;;;;;;;30.40;60.20;;;;;;4998040;28;19960;-74
2023/08/05 10:45:49;;;;;;;;;;;30.40;52.70;;;;;;4994720;28;19913;-73
2023/08/05 10:48:16;;;;;;;;;;;30.70;53.70;;;;;;4993956;28;20267;-73
2023/08/05 10:50:42;;;;;;;;;;;30.70;47.30;;;;;;4994689;28;20357;-73
2023/08/05 10:53:10;;;;;;;;;;;30.60;46.80;;;;;;4976732;28;19960;-74
2023/08/05 10:55:46;;;;;;;;;;;30.70;48.50;;;;;;4994553;28;20328;-74
2023/08/05 10:58:12;;;;;;;;;;;31.30;50.90;;;;;;4994146;28;20362;-73
2023/08/05 11:00:39;;;;;;;;;;;31.70;49.80;;;;;;4976675;28;19921;-73
2023/08/05 11:03:24;;;;;;;;;;;31.80;47.20;;;;;;4994078;28;20400;-72
2023/08/05 11:05:50;;;;;;;;;;;32.20;48.90;;;;;;4994393;28;20013;-73
2023/08/05 11:08:18;;;;;;;;;;;32.90;48.80;;;;;;4993979;28;20005;-72
2023/08/05 11:10:44;;;;;;;;;;;33.60;48.00;;;;;;4994254;28;20012;-73
2023/08/05 11:13:10;;;;;;;;;;;34.30;44.90;;;;;;4993869;28;19937;-73
2023/08/05 11:15:39;;;;;;;;;;;34.40;39.20;;;;;;4994059;28;20345;-72
2023/08/05 11:18:06;;;;;;;;;;;34.50;40.70;;;;;;4994060;28;20344;-73
2023/08/05 11:20:33;;;;;;;;;;;34.80;41.20;;;;;;4994762;28;20325;-78
2023/08/05 11:22:59;;;;;;;;;;;35.00;42.70;;;;;;4977094;28;19921;-70
2023/08/05 11:25:24;;;;;;;;;;;35.10;37.90;;;;;;4993848;28;20425;-70
2023/08/05 11:27:53;;;;;;;;;;;34.90;37.60;;;;;;4993646;28;20301;-69
2023/08/05 11:30:19;;;;;;;;;;;34.60;37.00;;;;;;4993601;28;19914;-71
2023/08/05 11:32:51;;;;;;;;;;;34.40;36.80;;;;;;4993516;28;19925;-70
2023/08/05 11:35:17;;;;;;;;;;;34.30;36.80;;;;;;4993599;28;19936;-70
2023/08/05 11:37:43;;;;;;;;;;;34.00;35.90;;;;;;4976040;28;19922;-69
2023/08/05 11:40:08;;;;;;;;;;;33.80;37.10;;;;;;4976476;28;20021;-75
2023/08/05 11:42:36;;;;;;;;;;;33.60;38.50;;;;;;4993801;28;19917;-74
2023/08/05 11:45:01;;;;;;;;;;;33.40;38.90;;;;;;4975997;28;19941;-74
2023/08/05 11:47:27;;;;;;;;;;;33.20;39.50;;;;;;5001516;28;19979;-75
2023/08/05 11:49:54;;;;;;;;;;;33.10;39.10;;;;;;4995957;28;19918;-75
2023/08/05 11:52:20;;;;;;;;;;;32.80;38.00;;;;;;4984861;28;19941;-73
2023/08/05 11:54:54;;;;;;;;;;;32.70;38.50;;;;;;4992832;28;19914;-75
2023/08/05 11:57:20;;;;;;;;;;;32.80;38.80;;;;;;5002296;28;20006;-74
2023/08/05 11:59:46;;;;;;;;;;;33.00;37.80;;;;;;4995281;28;19956;-74
2023/08/05 12:02:12;;;;;;;;;;;33.10;38.20;;;;;;5006306;28;19914;-75
2023/08/05 12:04:41;;;;;;;;;;;33.30;38.10;;;;;;4990916;28;19909;-74
2023/08/05 12:07:09;;;;;;;;;;;33.50;36.50;;;;;;5000106;28;19917;-75
2023/08/05 12:09:35;;;;;;;;;;;33.50;37.00;;;;;;4994822;28;19918;-75
2023/08/05 12:12:00;;;;;;;;;;;33.30;34.10;;;;;;4990988;28;19922;-73
2023/08/05 12:14:25;;;;;;;;;;;32.90;34.60;;;;;;4990696;28;19945;-74
2023/08/05 12:16:55;;;;;;;;;;;32.70;33.60;;;;;;4992812;28;19918;-74
2023/08/05 12:19:21;;;;;;;;;;;32.50;34.80;;;;;;4992873;28;20348;-74
2023/08/05 12:21:46;;;;;;;;;;;32.40;35.20;;;;;;4975799;28;20011;-75
2023/08/05 12:24:12;;;;;;;;;;;32.40;35.30;;;;;;4975160;28;19960;-75
2023/08/05 12:26:37;;;;;;;;;;;32.30;34.40;;;;;;4993166;28;19921;-74
2023/08/05 12:29:03;;;;;;;;;;;32.20;35.30;;;;;;4975440;28;19928;-74
2023/08/05 12:31:31;;;;;;;;;;;32.20;35.00;;;;;;4991603;28;19913;-74
2023/08/05 12:33:56;;;;;;;;;;;32.10;35.40;;;;;;4970431;28;19918;-74
2023/08/05 12:36:22;;;;;;;;;;;32.40;36.40;;;;;;4991124;28;19922;-74
2023/08/05 12:38:52;;;;;;;;;;;32.90;35.20;;;;;;5012549;28;19956;-75
2023/08/05 12:41:17;;;;;;;;;;;33.30;35.50;;;;;;4995070;28;19914;-75
2023/08/05 12:43:43;;;;;;;;;;;33.60;34.50;;;;;;5011031;28;20140;-75
2023/08/05 12:46:08;;;;;;;;;;;33.70;34.80;;;;;;4975199;28;19918;-73
2023/08/05 12:48:34;;;;;;;;;;;33.80;34.50;;;;;;4992448;28;19965;-69
2023/08/05 12:50:59;;;;;;;;;;;33.80;33.50;;;;;;4974878;28;19913;-69
2023/08/05 12:53:24;;;;;;;;;;;33.60;33.20;;;;;;4974956;28;20266;-69
2023/08/05 12:55:50;;;;;;;;;;;33.60;33.60;;;;;;4975066;28;19914;-70
2023/08/05 12:58:15;;;;;;;;;;;33.50;32.40;;;;;;4961885;28;19973;-70
2023/08/05 13:00:41;;;;;;;;;;;33.50;32.20;;;;;;4973072;28;20358;-70
2023/08/05 13:03:06;;;;;;;;;;;33.50;33.30;;;;;;4973927;28;20032;-70
2023/08/05 13:05:32;;;;;;;;;;;33.60;33.30;;;;;;4959562;28;19925;-70
2023/08/05 13:07:57;;;;;;;;;;;33.60;32.80;;;;;;4959569;28;19965;-68
2023/08/05 13:10:23;;;;;;;;;;;33.60;32.10;;;;;;4976828;28;19922;-69
2023/08/05 13:12:48;;;;;;;;;;;33.40;32.20;;;;;;4997659;28;21030;-69
2023/08/05 13:15:14;;;;;;;;;;;33.40;32.00;;;;;;4996144;28;19913;-69
2023/08/05 13:17:39;;;;;;;;;;;33.40;31.90;;;;;;5012773;28;19945;-69
2023/08/05 13:20:05;;;;;;;;;;;33.40;32.60;;;;;;5015679;28;19920;-69
2023/08/05 13:22:30;;;;;;;;;;;33.40;33.00;;;;;;5003426;28;19914;-69
2023/08/05 13:24:59;;;;;;;;;;;33.40;31.90;;;;;;4995593;28;20366;-69
2023/08/05 13:27:27;;;;;;;;;;;33.40;32.20;;;;;;5010867;28;19992;-69
2023/08/05 13:29:52;;;;;;;;;;;33.50;32.90;;;;;;5015442;28;19917;-69
2023/08/05 13:32:18;;;;;;;;;;;33.60;33.20;;;;;;5015255;28;19913;-69
2023/08/05 13:34:43;;;;;;;;;;;33.70;32.90;;;;;;4973376;28;19969;-69
2023/08/05 13:37:09;;;;;;;;;;;33.80;31.90;;;;;;4995586;28;20412;-69
2023/08/05 13:39:34;;;;;;;;;;;33.50;30.50;;;;;;5015508;28;19914;-69
2023/08/05 13:42:00;;;;;;;;;;;33.40;30.90;;;;;;4978566;28;19934;-69
2023/08/05 13:44:26;;;;;;;;;;;33.30;30.60;;;;;;4971183;28;19918;-69
2023/08/05 13:46:52;;;;;;;;;;;33.30;30.70;;;;;;4991638;28;19918;-69
2023/08/05 13:49:17;;;;;;;;;;;33.30;30.60;;;;;;4990577;28;19976;-69
2023/08/05 13:51:43;;;;;;;;;;;33.30;30.60;;;;;;4996706;28;20011;-71
2023/08/05 13:54:10;;;;;;;;;;;33.30;30.40;;;;;;4991073;28;19914;-71
2023/08/05 13:56:36;;;;;;;;;;;33.20;30.60;;;;;;4994491;28;19921;-69
2023/08/05 13:59:02;;;;;;;;;;;33.30;30.60;;;;;;4976473;28;19914;-69
2023/08/05 14:01:27;;;;;;;;;;;33.30;30.50;;;;;;4990061;28;20439;-69
2023/08/05 14:03:53;;;;;;;;;;;33.30;30.10;;;;;;4971103;28;19918;-69
2023/08/05 14:06:18;;;;;;;;;;;33.30;29.90;;;;;;4998024;28;19913;-68
2023/08/05 14:08:43;;;;;;;;;;;33.30;29.40;;;;;;5014641;28;19922;-68